createdAt,value
2022-08-26T00:00:02.184Z,98736.53
2022-08-26T00:03:22.020Z,98734.21
2022-08-26T00:06:42.642Z,98729.80
2022-08-26T00:09:57.638Z,98737.30
2022-08-26T00:13:15.170Z,98730.50
2022-08-26T00:16:32.237Z,98732.63
2022-08-26T00:19:48.767Z,98728.55
2022-08-26T00:23:07.925Z,98734.97
2022-08-26T00:26:24.699Z,98730.55
2022-08-26T00:29:43.276Z,98727.29
2022-08-26T00:32:59.805Z,98727.39
2022-08-26T00:39:31.811Z,98740.58
2022-08-26T00:42:48.480Z,98737.66
2022-08-26T00:46:09.474Z,98730.97
2022-08-26T00:52:42.404Z,98741.30
2022-08-26T00:56:05.310Z,98745.46
2022-08-26T00:59:25.006Z,98739.37
2022-08-26T01:02:46.845Z,98738.11
2022-08-26T01:06:04.518Z,98746.45
2022-08-26T01:09:22.995Z,98748.00
2022-08-26T01:12:43.457Z,98736.71
2022-08-26T01:16:04.992Z,98733.58
2022-08-26T01:19:26.384Z,98738.86
2022-08-26T01:22:52.363Z,98735.10
2022-08-26T01:26:19.576Z,98736.41
2022-08-26T01:29:33.786Z,98731.52
2022-08-26T01:32:51.584Z,98740.03
2022-08-26T01:36:08.828Z,98728.97
2022-08-26T01:39:26.037Z,98729.91
2022-08-26T01:42:42.889Z,98733.18
2022-08-26T01:46:00.434Z,98730.14
2022-08-26T01:49:19.257Z,98736.69
2022-08-26T01:52:38.633Z,98729.92
2022-08-26T01:55:58.832Z,98735.05
2022-08-26T01:59:18.236Z,98732.02
2022-08-26T02:02:36.951Z,98730.38
2022-08-26T02:05:55.558Z,98727.34
2022-08-26T02:09:15.554Z,98732.59
2022-08-26T02:12:33.110Z,98728.63
2022-08-26T02:15:53.026Z,98722.91
2022-08-26T02:19:10.140Z,98730.13
2022-08-26T02:25:52.575Z,98723.44
2022-08-26T02:29:15.187Z,98721.00
2022-08-26T02:32:31.517Z,98718.16
2022-08-26T02:35:48.867Z,98724.45
2022-08-26T02:39:05.293Z,98722.61
2022-08-26T02:42:22.337Z,98721.44
2022-08-26T02:45:38.941Z,98714.08
2022-08-26T02:48:55.292Z,98717.80
2022-08-26T02:52:11.671Z,98711.27
2022-08-26T02:55:28.043Z,98708.80
2022-08-26T02:58:44.629Z,98715.23
2022-08-26T03:02:01.174Z,98716.72
2022-08-26T03:05:20.590Z,98704.23
2022-08-26T03:08:38.595Z,98709.83
2022-08-26T03:11:56.186Z,98703.66
2022-08-26T03:15:17.469Z,98703.06
2022-08-26T03:18:32.416Z,98709.46
2022-08-26T03:21:50.236Z,98703.97
2022-08-26T03:25:09.621Z,98714.56
2022-08-26T03:28:27.153Z,98705.36
2022-08-26T03:31:43.975Z,98712.80
2022-08-26T03:35:02.213Z,98702.38
2022-08-26T03:38:19.177Z,98702.98
2022-08-26T03:41:35.558Z,98700.54
2022-08-26T03:44:52.320Z,98706.10
2022-08-26T03:48:09.648Z,98707.04
2022-08-26T03:51:27.802Z,98714.23
2022-08-26T03:54:44.506Z,98707.04
2022-08-26T03:58:02.869Z,98710.39
2022-08-26T04:01:20.894Z,98706.50
2022-08-26T04:04:38.190Z,98706.38
2022-08-26T04:07:55.313Z,98711.06
2022-08-26T04:11:12.255Z,98712.47
2022-08-26T04:14:32.634Z,98713.50
2022-08-26T04:17:49.237Z,98712.23
2022-08-26T04:24:24.178Z,98721.48
2022-08-26T04:27:40.821Z,98721.38
2022-08-26T04:30:56.974Z,98709.38
2022-08-26T04:34:14.302Z,98713.47
2022-08-26T04:37:32.082Z,98714.88
2022-08-26T04:40:52.653Z,98715.01
2022-08-26T04:44:11.345Z,98711.65
2022-08-26T04:47:32.098Z,98707.13
2022-08-26T04:50:49.369Z,98700.02
2022-08-26T04:54:04.476Z,98709.02
2022-08-26T04:57:23.667Z,98714.03
2022-08-26T05:00:39.826Z,98709.16
2022-08-26T05:03:57.276Z,98712.92
2022-08-26T05:07:14.603Z,98709.79
2022-08-26T05:10:34.868Z,98716.67
2022-08-26T05:13:51.266Z,98713.91
2022-08-26T05:17:08.148Z,98717.54
2022-08-26T05:20:26.224Z,98724.66
2022-08-26T05:23:44.623Z,98728.02
2022-08-26T05:27:01.238Z,98732.46
2022-08-26T05:30:20.602Z,98727.09
2022-08-26T05:33:37.199Z,98722.55
2022-08-26T05:36:55.382Z,98725.69
2022-08-26T05:40:15.927Z,98721.37
2022-08-26T05:43:32.243Z,98729.28
2022-08-26T05:46:51.250Z,98724.99
2022-08-26T05:56:39.234Z,98726.95
2022-08-26T05:59:55.339Z,98725.16
2022-08-26T06:03:13.127Z,98726.90
2022-08-26T06:06:33.640Z,98720.95
2022-08-26T06:09:50.681Z,98724.33
2022-08-26T06:13:11.647Z,98725.25
2022-08-26T06:16:28.497Z,98736.34
2022-08-26T06:19:47.455Z,98736.53
2022-08-26T06:23:17.630Z,98730.88
2022-08-26T06:26:34.120Z,98731.72
2022-08-26T06:29:52.420Z,98733.86
2022-08-26T06:33:08.687Z,98726.98
2022-08-26T06:36:31.695Z,98735.61
2022-08-26T06:39:48.789Z,98735.50
2022-08-26T06:43:07.137Z,98740.48
2022-08-26T06:46:27.528Z,98726.23
2022-08-26T06:49:44.242Z,98736.75
2022-08-26T06:53:00.847Z,98745.05
2022-08-26T06:56:20.278Z,98736.13
2022-08-26T06:59:36.782Z,98740.48
2022-08-26T07:02:53.116Z,98735.71
2022-08-26T07:06:13.983Z,98741.72
2022-08-26T07:09:33.984Z,98740.47
2022-08-26T07:12:50.466Z,98739.80
2022-08-26T07:16:18.530Z,98743.11
2022-08-26T07:19:40.016Z,98737.22
2022-08-26T07:23:00.179Z,98736.03
2022-08-26T07:26:23.363Z,98734.95
2022-08-26T07:29:43.179Z,98724.06
2022-08-26T07:33:00.873Z,98733.98
2022-08-26T07:36:20.109Z,98731.32
2022-08-26T07:39:37.369Z,98735.42
2022-08-26T07:42:55.369Z,98729.37
2022-08-26T07:46:16.552Z,98737.81
2022-08-26T07:49:34.401Z,98740.05
2022-08-26T07:56:06.249Z,98738.98
2022-08-26T07:59:24.320Z,98742.23
2022-08-26T08:02:40.653Z,98744.34
2022-08-26T08:09:12.324Z,98736.97
2022-08-26T08:12:31.129Z,98737.42
2022-08-26T08:15:48.426Z,98736.59
2022-08-26T08:19:06.911Z,98741.81
2022-08-26T08:22:28.020Z,98739.22
2022-08-26T08:25:44.588Z,98741.11
2022-08-26T08:29:03.549Z,98738.89
2022-08-26T08:32:20.515Z,98732.06
2022-08-26T08:38:55.188Z,98733.08
2022-08-26T08:42:47.540Z,98726.52
2022-08-26T08:46:09.705Z,98737.02
2022-08-26T08:49:27.192Z,98732.13
2022-08-26T08:52:47.621Z,98733.14
2022-08-26T08:56:08.050Z,98731.91
2022-08-26T08:59:28.944Z,98723.46
2022-08-26T09:02:51.279Z,98716.50
2022-08-26T09:06:11.360Z,98720.41
2022-08-26T09:09:33.606Z,98719.94
2022-08-26T09:12:51.032Z,98716.28
2022-08-26T09:16:15.694Z,98717.84
2022-08-26T09:19:38.554Z,98710.27
2022-08-26T09:22:56.730Z,98715.66
2022-08-26T09:26:23.528Z,98714.53
2022-08-26T09:29:46.277Z,98701.86
2022-08-26T09:33:12.647Z,98696.08
2022-08-26T09:36:41.639Z,98704.08
2022-08-26T09:39:58.159Z,98701.67
2022-08-26T09:43:24.539Z,98693.73
2022-08-26T09:46:41.654Z,98688.14
2022-08-26T09:50:11.004Z,98694.84
2022-08-26T09:56:47.235Z,98675.73
2022-08-26T10:00:04.060Z,98671.06
2022-08-26T10:03:31.592Z,98662.83
2022-08-26T10:10:04.706Z,98661.68
2022-08-26T10:13:25.709Z,98662.70
2022-08-26T10:16:50.585Z,98661.45
2022-08-26T10:20:23.346Z,98661.92
2022-08-26T10:23:34.092Z,98660.44
2022-08-26T10:26:55.226Z,98655.16
2022-08-26T10:30:19.942Z,98650.41
2022-08-26T10:33:36.359Z,98645.81
2022-08-26T10:37:15.994Z,98649.84
2022-08-26T10:40:24.321Z,98637.69
2022-08-26T10:43:45.434Z,98642.51
2022-08-26T10:47:06.995Z,98631.58
2022-08-26T10:50:28.164Z,98638.20
2022-08-26T10:53:53.561Z,98634.59
2022-08-26T10:57:16.628Z,98633.20
2022-08-26T11:00:51.740Z,98625.59
2022-08-26T11:04:15.804Z,98625.45
2022-08-26T11:07:51.485Z,98634.03
2022-08-26T11:11:09.436Z,98626.01
2022-08-26T11:14:56.230Z,98630.90
2022-08-26T11:18:10.661Z,98614.94
2022-08-26T11:22:10.946Z,98612.39
2022-08-26T11:25:31.033Z,98614.33
2022-08-26T11:28:51.252Z,98601.56
2022-08-26T11:32:08.930Z,98607.40
2022-08-26T11:35:55.740Z,98604.48
2022-08-26T11:39:24.953Z,98603.03
2022-08-26T11:42:47.334Z,98591.25
2022-08-26T11:46:13.184Z,98584.37
2022-08-26T11:49:30.229Z,98574.56
2022-08-26T11:52:46.786Z,98583.16
2022-08-26T11:56:06.391Z,98588.94
2022-08-26T11:59:27.707Z,98581.19
2022-08-26T12:02:47.209Z,98571.58
2022-08-26T12:06:04.261Z,98572.17
2022-08-26T12:09:27.630Z,98564.50
2022-08-26T12:12:46.027Z,98557.23
2022-08-26T12:16:06.773Z,98562.81
2022-08-26T12:19:35.613Z,98552.34
2022-08-26T12:26:18.970Z,98562.81
2022-08-26T12:29:36.293Z,98549.17
2022-08-26T12:32:59.057Z,98550.59
2022-08-26T12:39:39.065Z,98537.46
2022-08-26T12:42:57.423Z,98554.12
2022-08-26T12:46:16.707Z,98541.42
2022-08-26T12:49:32.924Z,98531.81
2022-08-26T12:53:00.006Z,98539.17
2022-08-26T12:56:31.037Z,98529.09
2022-08-26T12:59:47.391Z,98523.50
2022-08-26T13:03:04.442Z,98523.06
2022-08-26T13:06:32.157Z,98527.34
2022-08-26T13:09:48.391Z,98519.47
2022-08-26T13:13:04.578Z,98522.52
2022-08-26T13:16:20.928Z,98513.03
2022-08-26T13:19:37.298Z,98511.09
2022-08-26T13:22:59.133Z,98511.29
2022-08-26T13:26:16.077Z,98503.42
2022-08-26T13:29:32.386Z,98497.45
2022-08-26T13:32:49.137Z,98498.89
2022-08-26T13:36:05.578Z,98499.68
2022-08-26T13:39:22.488Z,98485.25
2022-08-26T13:42:38.704Z,98499.55
2022-08-26T13:45:56.818Z,98495.71
2022-08-26T13:49:13.208Z,98499.73
2022-08-26T13:52:30.953Z,98496.83
2022-08-26T13:55:48.721Z,98490.58
2022-08-26T13:59:05.288Z,98487.53
2022-08-26T14:02:23.323Z,98487.24
2022-08-26T14:05:40.052Z,98489.47
2022-08-26T14:08:56.794Z,98474.52
2022-08-26T14:12:14.025Z,98474.33
2022-08-26T14:15:30.573Z,98472.11
2022-08-26T14:18:51.087Z,98470.78
2022-08-26T14:22:09.174Z,98471.10
2022-08-26T14:25:26.123Z,98474.02
2022-08-26T14:28:42.599Z,98475.82
2022-08-26T14:31:59.814Z,98479.16
2022-08-26T14:35:19.600Z,98477.25
2022-08-26T14:38:36.232Z,98473.70
2022-08-26T14:41:57.968Z,98473.22
2022-08-26T14:45:18.688Z,98470.78
2022-08-26T14:48:35.464Z,98475.77
2022-08-26T14:51:52.124Z,98474.94
2022-08-26T14:55:08.354Z,98470.63
2022-08-26T14:58:24.592Z,98469.80
2022-08-26T15:01:43.129Z,98472.40
2022-08-26T15:04:59.490Z,98465.64
2022-08-26T15:08:29.481Z,98465.45
2022-08-26T15:11:47.784Z,98472.63
2022-08-26T15:15:09.746Z,98466.66
2022-08-26T15:18:26.103Z,98467.80
2022-08-26T15:21:46.237Z,98461.52
2022-08-26T15:25:04.747Z,98459.11
2022-08-26T15:28:21.043Z,98461.33
2022-08-26T15:31:40.608Z,98454.58
2022-08-26T15:34:57.216Z,98451.25
2022-08-26T15:38:14.415Z,98454.09
2022-08-26T15:41:31.162Z,98451.66
2022-08-26T15:44:53.305Z,98452.77
2022-08-26T15:48:10.070Z,98456.13
2022-08-26T15:51:45.300Z,98450.48
2022-08-26T15:54:56.159Z,98439.38
2022-08-26T15:58:12.406Z,98436.78
2022-08-26T16:01:30.064Z,98442.05
2022-08-26T16:04:49.785Z,98440.73
2022-08-26T16:08:07.464Z,98446.31
2022-08-26T16:11:24.195Z,98439.56
2022-08-26T16:14:43.496Z,98443.39
2022-08-26T16:17:59.589Z,98445.13
2022-08-26T16:21:17.095Z,98440.27
2022-08-26T16:24:33.215Z,98435.45
2022-08-26T16:27:49.662Z,98430.91
2022-08-26T16:31:10.304Z,98422.00
2022-08-26T16:34:26.660Z,98422.11
2022-08-26T16:41:05.317Z,98418.63
2022-08-26T16:44:23.076Z,98421.46
2022-08-26T16:47:42.577Z,98419.44
2022-08-26T16:51:02.529Z,98416.31
2022-08-26T16:54:19.083Z,98414.49
2022-08-26T16:57:36.123Z,98410.56
2022-08-26T17:00:53.302Z,98414.70
2022-08-26T17:04:10.057Z,98410.16
2022-08-26T17:07:27.387Z,98417.61
2022-08-26T17:14:00.068Z,98411.33
2022-08-26T17:17:16.638Z,98408.19
2022-08-26T17:20:34.467Z,98410.22
2022-08-26T17:27:05.778Z,98417.14
2022-08-26T17:30:28.013Z,98415.89
2022-08-26T17:33:48.840Z,98406.78
2022-08-26T17:37:05.414Z,98410.38
2022-08-26T17:40:26.674Z,98403.11
2022-08-26T17:43:44.346Z,98398.86
2022-08-26T17:47:02.141Z,98408.80
2022-08-26T17:50:24.007Z,98400.82
2022-08-26T17:53:42.833Z,98401.25
2022-08-26T17:57:00.312Z,98400.31
2022-08-26T18:00:23.764Z,98403.11
2022-08-26T18:03:42.227Z,98394.78
2022-08-26T18:10:22.690Z,98401.00
2022-08-26T18:13:47.619Z,98401.34
2022-08-26T18:17:00.163Z,98396.80
2022-08-26T18:20:21.612Z,98396.58
2022-08-26T18:23:48.240Z,98393.10
2022-08-26T18:27:36.329Z,98398.07
2022-08-26T18:31:20.168Z,98400.62
2022-08-26T18:34:55.843Z,98394.19
2022-08-26T18:38:50.383Z,98397.23
2022-08-26T18:46:34.670Z,98402.89
2022-08-26T18:50:05.378Z,98398.59
2022-08-26T18:53:32.023Z,98401.14
2022-08-26T18:56:51.830Z,98397.86
2022-08-26T19:00:12.072Z,98397.98
2022-08-26T19:03:29.570Z,98385.58
2022-08-26T19:11:41.728Z,98388.60
2022-08-26T19:15:06.542Z,98385.04
2022-08-26T19:18:29.966Z,98383.12
2022-08-26T19:27:36.377Z,98378.98
2022-08-26T19:30:55.946Z,98373.50
2022-08-26T19:34:14.793Z,98372.91
2022-08-26T19:40:54.114Z,98374.70
2022-08-26T19:44:17.069Z,98376.54
2022-08-26T19:47:37.938Z,98377.82
2022-08-26T19:51:51.979Z,98383.66
2022-08-26T19:55:29.782Z,98378.23
2022-08-26T19:58:48.166Z,98384.13
2022-08-26T20:02:09.979Z,98374.65
2022-08-26T20:05:36.201Z,98371.05
2022-08-26T20:08:56.427Z,98372.89
2022-08-26T20:12:26.988Z,98386.31
2022-08-26T20:15:46.193Z,98380.59
2022-08-26T20:19:17.793Z,98374.86
2022-08-26T20:22:34.688Z,98386.16
2022-08-26T20:25:51.047Z,98390.22
2022-08-26T20:29:08.024Z,98387.75
2022-08-26T20:32:24.254Z,98389.88
2022-08-26T20:35:40.526Z,98397.72
2022-08-26T20:38:57.438Z,98401.66
2022-08-26T20:42:20.218Z,98405.94
2022-08-26T20:45:32.419Z,98409.16
2022-08-26T20:48:49.023Z,98419.04
2022-08-26T20:52:06.380Z,98410.87
2022-08-26T20:55:22.944Z,98415.36
2022-08-26T20:58:40.007Z,98413.45
2022-08-26T21:01:56.511Z,98412.56
2022-08-26T21:05:14.887Z,98418.34
2022-08-26T21:11:47.962Z,98418.80
2022-08-26T21:15:04.578Z,98417.43
2022-08-26T21:18:20.990Z,98414.36
2022-08-26T21:21:37.361Z,98416.96
2022-08-26T21:24:54.087Z,98411.04
2022-08-26T21:28:11.286Z,98415.84
2022-08-26T21:31:32.689Z,98409.09
2022-08-26T21:34:49.109Z,98412.52
2022-08-26T21:38:06.089Z,98408.96
2022-08-26T21:41:26.014Z,98410.81
2022-08-26T21:44:42.310Z,98406.21
2022-08-26T21:47:58.724Z,98406.94
2022-08-26T21:51:16.647Z,98406.05
2022-08-26T21:57:48.210Z,98405.50
2022-08-26T22:01:04.683Z,98414.36
2022-08-26T22:04:22.553Z,98414.04
2022-08-26T22:10:55.861Z,98412.77
2022-08-26T22:14:12.866Z,98411.69
2022-08-26T22:17:30.675Z,98407.88
2022-08-26T22:20:47.330Z,98407.07
2022-08-26T22:27:19.935Z,98422.68
2022-08-26T22:30:36.488Z,98405.89
2022-08-26T22:33:53.604Z,98417.09
2022-08-26T22:37:09.923Z,98420.48
2022-08-26T22:43:42.470Z,98420.16
2022-08-26T22:47:00.505Z,98414.66
2022-08-26T22:50:18.446Z,98419.20
2022-08-26T22:53:35.919Z,98417.83
2022-08-26T22:56:54.116Z,98406.59
2022-08-26T23:00:13.705Z,98406.53
2022-08-26T23:03:30.172Z,98402.56
2022-08-26T23:06:50.400Z,98402.64
2022-08-26T23:10:06.623Z,98405.19
2022-08-26T23:13:24.021Z,98396.38
2022-08-26T23:16:44.493Z,98404.28
2022-08-26T23:20:00.881Z,98393.93
2022-08-26T23:23:18.155Z,98394.10
2022-08-26T23:26:34.833Z,98393.77
2022-08-26T23:29:51.014Z,98388.57
2022-08-26T23:33:08.704Z,98386.28
2022-08-26T23:36:26.113Z,98383.42
2022-08-26T23:39:43.869Z,98366.91
2022-08-26T23:43:01.032Z,98373.57
2022-08-26T23:46:17.603Z,98369.17
2022-08-26T23:49:35.394Z,98360.61
2022-08-26T23:53:06.017Z,98359.77
2022-08-26T23:56:25.227Z,98364.89
2022-08-26T23:59:44.488Z,98363.75
